East Marion, New York
Current Conditions -  °F | °C
As of 12:35 AM on Friday 28 Nov 2014 (Local Time) from KSNC Reporting Station
Overcast Overcast  
Wind Chill: 26°   Ceiling: 4200
Heat Index: 32°   Visibility: 10mi
Dew Point: 30°   Wind: 7mph
Humidity: 93%   Direction: 340°NNW
Pressure: 30"   Gusts: NA
Location:  41.13°N, 72.34°W
Report Text: KSNC 280535Z AUTO 34006KT 10SM OVC042 00/M01 A3000 RMK AO2
Loading
Personal Weather Stations






























Interactive Weather Map New forecast layout! Learn more

10-Day Weather Forecast

Advertisements
Track Severe Weather on mobile